sensor_id;sensor_type;location;lat;lon;timestamp;temperature;humidity
2621;DHT22;1320;48.128;11.592;2023-12-20T00:00:13;8.50;93.20
2621;DHT22;1320;48.128;11.592;2023-12-20T00:02:39;8.50;93.50
2621;DHT22;1320;48.128;11.592;2023-12-20T00:05:05;8.50;94.50
2621;DHT22;1320;48.128;11.592;2023-12-20T00:07:31;8.40;90.40
2621;DHT22;1320;48.128;11.592;2023-12-20T00:09:57;8.50;90.50
2621;DHT22;1320;48.128;11.592;2023-12-20T00:12:22;8.50;90.50
2621;DHT22;1320;48.128;11.592;2023-12-20T00:14:48;8.40;90.60
2621;DHT22;1320;48.128;11.592;2023-12-20T00:17:14;8.40;90.80
2621;DHT22;1320;48.128;11.592;2023-12-20T00:19:40;8.50;90.90
2621;DHT22;1320;48.128;11.592;2023-12-20T00:22:05;8.50;91.00
2621;DHT22;1320;48.128;11.592;2023-12-20T00:24:31;8.50;91.10
2621;DHT22;1320;48.128;11.592;2023-12-20T00:26:56;8.50;91.10
2621;DHT22;1320;48.128;11.592;2023-12-20T00:29:22;8.50;91.30
2621;DHT22;1320;48.128;11.592;2023-12-20T00:31:48;8.50;91.30
2621;DHT22;1320;48.128;11.592;2023-12-20T00:34:13;8.50;91.20
2621;DHT22;1320;48.128;11.592;2023-12-20T00:36:39;8.60;91.20
2621;DHT22;1320;48.128;11.592;2023-12-20T00:39:05;8.60;91.10
2621;DHT22;1320;48.128;11.592;2023-12-20T00:41:32;8.60;90.70
2621;DHT22;1320;48.128;11.592;2023-12-20T00:43:57;8.50;90.60
2621;DHT22;1320;48.128;11.592;2023-12-20T00:46:23;8.60;90.40
2621;DHT22;1320;48.128;11.592;2023-12-20T00:48:49;8.60;90.10
2621;DHT22;1320;48.128;11.592;2023-12-20T00:51:14;8.60;89.80
2621;DHT22;1320;48.128;11.592;2023-12-20T00:53:40;8.60;89.00
2621;DHT22;1320;48.128;11.592;2023-12-20T00:56:06;8.60;89.10
2621;DHT22;1320;48.128;11.592;2023-12-20T00:58:31;8.70;89.30
2621;DHT22;1320;48.128;11.592;2023-12-20T01:00:57;8.80;88.80
2621;DHT22;1320;48.128;11.592;2023-12-20T01:03:23;8.80;88.30
2621;DHT22;1320;48.128;11.592;2023-12-20T01:05:49;8.90;88.10
2621;DHT22;1320;48.128;11.592;2023-12-20T01:08:15;8.90;87.90
2621;DHT22;1320;48.128;11.592;2023-12-20T01:10:40;8.90;87.40
2621;DHT22;1320;48.128;11.592;2023-12-20T01:13:06;8.90;87.40
2621;DHT22;1320;48.128;11.592;2023-12-20T01:15:32;9.00;87.40
2621;DHT22;1320;48.128;11.592;2023-12-20T01:17:57;9.00;87.50
2621;DHT22;1320;48.128;11.592;2023-12-20T01:20:24;8.90;87.70
2621;DHT22;1320;48.128;11.592;2023-12-20T01:22:50;8.80;88.20
2621;DHT22;1320;48.128;11.592;2023-12-20T01:25:16;8.80;88.60
2621;DHT22;1320;48.128;11.592;2023-12-20T01:27:42;8.80;88.90
2621;DHT22;1320;48.128;11.592;2023-12-20T01:30:08;8.90;89.10
2621;DHT22;1320;48.128;11.592;2023-12-20T01:32:33;8.90;89.60
2621;DHT22;1320;48.128;11.592;2023-12-20T01:34:59;8.90;89.70
2621;DHT22;1320;48.128;11.592;2023-12-20T01:37:25;9.00;90.00
2621;DHT22;1320;48.128;11.592;2023-12-20T01:39:52;9.00;90.20
2621;DHT22;1320;48.128;11.592;2023-12-20T01:42:18;9.00;90.40
2621;DHT22;1320;48.128;11.592;2023-12-20T01:44:44;9.00;90.50
2621;DHT22;1320;48.128;11.592;2023-12-20T01:47:09;9.00;90.70
2621;DHT22;1320;48.128;11.592;2023-12-20T01:49:35;9.00;90.80
2621;DHT22;1320;48.128;11.592;2023-12-20T01:52:01;9.00;90.90
2621;DHT22;1320;48.128;11.592;2023-12-20T01:54:27;9.00;91.20
2621;DHT22;1320;48.128;11.592;2023-12-20T01:56:52;9.00;91.20
2621;DHT22;1320;48.128;11.592;2023-12-20T01:59:19;9.00;91.30
2621;DHT22;1320;48.128;11.592;2023-12-20T02:01:46;9.00;91.40
2621;DHT22;1320;48.128;11.592;2023-12-20T02:04:12;9.10;91.40
2621;DHT22;1320;48.128;11.592;2023-12-20T02:06:39;9.10;91.30
2621;DHT22;1320;48.128;11.592;2023-12-20T02:09:06;9.10;91.30
2621;DHT22;1320;48.128;11.592;2023-12-20T02:11:33;9.10;91.50
2621;DHT22;1320;48.128;11.592;2023-12-20T02:13:58;9.10;91.40
2621;DHT22;1320;48.128;11.592;2023-12-20T02:16:24;9.20;91.50
2621;DHT22;1320;48.128;11.592;2023-12-20T02:18:50;9.20;91.80
2621;DHT22;1320;48.128;11.592;2023-12-20T02:21:15;9.20;91.80
2621;DHT22;1320;48.128;11.592;2023-12-20T02:23:41;9.20;91.90
2621;DHT22;1320;48.128;11.592;2023-12-20T02:26:07;9.20;92.00
2621;DHT22;1320;48.128;11.592;2023-12-20T02:28:33;9.20;92.10
2621;DHT22;1320;48.128;11.592;2023-12-20T02:30:59;9.20;92.30
2621;DHT22;1320;48.128;11.592;2023-12-20T02:33:25;9.20;92.50
2621;DHT22;1320;48.128;11.592;2023-12-20T02:35:51;9.20;92.80
2621;DHT22;1320;48.128;11.592;2023-12-20T02:38:18;9.20;92.90
2621;DHT22;1320;48.128;11.592;2023-12-20T02:40:43;9.20;93.00
2621;DHT22;1320;48.128;11.592;2023-12-20T02:43:09;9.30;93.40
2621;DHT22;1320;48.128;11.592;2023-12-20T02:45:35;9.30;93.60
2621;DHT22;1320;48.128;11.592;2023-12-20T02:48:00;9.40;93.80
2621;DHT22;1320;48.128;11.592;2023-12-20T02:50:26;9.40;94.10
2621;DHT22;1320;48.128;11.592;2023-12-20T02:52:51;9.40;94.10
2621;DHT22;1320;48.128;11.592;2023-12-20T02:55:17;9.40;94.40
2621;DHT22;1320;48.128;11.592;2023-12-20T02:57:43;9.30;94.40
2621;DHT22;1320;48.128;11.592;2023-12-20T03:00:09;9.30;94.60
2621;DHT22;1320;48.128;11.592;2023-12-20T03:02:36;9.30;94.70
2621;DHT22;1320;48.128;11.592;2023-12-20T03:05:02;9.30;95.00
2621;DHT22;1320;48.128;11.592;2023-12-20T03:07:28;9.30;95.10
2621;DHT22;1320;48.128;11.592;2023-12-20T03:09:54;9.30;95.30
2621;DHT22;1320;48.128;11.592;2023-12-20T03:12:19;9.30;95.50
2621;DHT22;1320;48.128;11.592;2023-12-20T03:14:45;9.30;95.80
2621;DHT22;1320;48.128;11.592;2023-12-20T03:17:10;9.30;96.00
2621;DHT22;1320;48.128;11.592;2023-12-20T03:19:36;9.30;96.10
2621;DHT22;1320;48.128;11.592;2023-12-20T03:22:02;9.40;96.50
2621;DHT22;1320;48.128;11.592;2023-12-20T03:24:28;9.40;96.90
2621;DHT22;1320;48.128;11.592;2023-12-20T03:26:53;9.30;97.20
2621;DHT22;1320;48.128;11.592;2023-12-20T03:29:19;9.30;97.80
2621;DHT22;1320;48.128;11.592;2023-12-20T03:31:45;9.20;98.20
2621;DHT22;1320;48.128;11.592;2023-12-20T03:34:11;9.20;98.70
2621;DHT22;1320;48.128;11.592;2023-12-20T03:36:37;9.20;99.10
2621;DHT22;1320;48.128;11.592;2023-12-20T03:39:03;9.30;99.40
2621;DHT22;1320;48.128;11.592;2023-12-20T03:41:28;9.30;99.40
2621;DHT22;1320;48.128;11.592;2023-12-20T03:43:54;9.30;99.40
2621;DHT22;1320;48.128;11.592;2023-12-20T03:46:20;9.30;99.20
2621;DHT22;1320;48.128;11.592;2023-12-20T03:48:45;9.40;99.40
2621;DHT22;1320;48.128;11.592;2023-12-20T03:51:11;9.40;99.90
2621;DHT22;1320;48.128;11.592;2023-12-20T03:53:36;9.40;99.90
2621;DHT22;1320;48.128;11.592;2023-12-20T03:56:02;9.30;99.90
2621;DHT22;1320;48.128;11.592;2023-12-20T03:58:29;9.30;99.90
2621;DHT22;1320;48.128;11.592;2023-12-20T04:00:54;9.30;99.90
2621;DHT22;1320;48.128;11.592;2023-12-20T04:03:20;9.30;99.90
2621;DHT22;1320;48.128;11.592;2023-12-20T04:05:46;9.30;99.90
2621;DHT22;1320;48.128;11.592;2023-12-20T04:08:11;9.30;99.90
2621;DHT22;1320;48.128;11.592;2023-12-20T04:10:37;9.20;99.90
2621;DHT22;1320;48.128;11.592;2023-12-20T04:13:04;9.10;99.90
2621;DHT22;1320;48.128;11.592;2023-12-20T04:15:29;9.10;99.90
2621;DHT22;1320;48.128;11.592;2023-12-20T04:17:55;9.00;99.90
2621;DHT22;1320;48.128;11.592;2023-12-20T04:20:21;9.00;99.90
2621;DHT22;1320;48.128;11.592;2023-12-20T04:22:47;8.90;99.90
2621;DHT22;1320;48.128;11.592;2023-12-20T04:25:12;8.80;99.90
2621;DHT22;1320;48.128;11.592;2023-12-20T04:27:38;8.80;99.90
2621;DHT22;1320;48.128;11.592;2023-12-20T04:30:04;8.90;99.90
2621;DHT22;1320;48.128;11.592;2023-12-20T04:34:57;8.80;99.90
2621;DHT22;1320;48.128;11.592;2023-12-20T04:37:22;8.80;99.90
2621;DHT22;1320;48.128;11.592;2023-12-20T04:39:48;8.80;99.90
2621;DHT22;1320;48.128;11.592;2023-12-20T04:42:14;8.80;99.90
2621;DHT22;1320;48.128;11.592;2023-12-20T04:44:39;8.70;99.90
2621;DHT22;1320;48.128;11.592;2023-12-20T04:47:05;8.70;99.90
2621;DHT22;1320;48.128;11.592;2023-12-20T04:49:30;8.70;99.90
2621;DHT22;1320;48.128;11.592;2023-12-20T04:51:56;8.70;99.90
2621;DHT22;1320;48.128;11.592;2023-12-20T04:54:22;8.70;99.90
2621;DHT22;1320;48.128;11.592;2023-12-20T04:56:47;8.70;99.90
2621;DHT22;1320;48.128;11.592;2023-12-20T04:59:13;8.70;99.90
2621;DHT22;1320;48.128;11.592;2023-12-20T05:01:39;8.70;99.90
2621;DHT22;1320;48.128;11.592;2023-12-20T05:04:04;8.60;99.90
2621;DHT22;1320;48.128;11.592;2023-12-20T05:06:30;8.60;99.90
2621;DHT22;1320;48.128;11.592;2023-12-20T05:08:56;8.50;99.90
2621;DHT22;1320;48.128;11.592;2023-12-20T05:11:21;8.50;99.90
2621;DHT22;1320;48.128;11.592;2023-12-20T05:13:47;8.50;99.90
2621;DHT22;1320;48.128;11.592;2023-12-20T05:16:13;8.40;99.90
2621;DHT22;1320;48.128;11.592;2023-12-20T05:18:40;8.40;99.90
2621;DHT22;1320;48.128;11.592;2023-12-20T05:21:05;8.40;99.90
2621;DHT22;1320;48.128;11.592;2023-12-20T05:23:32;8.30;99.90
2621;DHT22;1320;48.128;11.592;2023-12-20T05:25:57;8.30;99.90
2621;DHT22;1320;48.128;11.592;2023-12-20T05:28:24;8.20;99.90
2621;DHT22;1320;48.128;11.592;2023-12-20T05:30:50;8.10;99.90
2621;DHT22;1320;48.128;11.592;2023-12-20T05:33:15;8.00;99.90
2621;DHT22;1320;48.128;11.592;2023-12-20T05:35:41;7.90;99.90
2621;DHT22;1320;48.128;11.592;2023-12-20T05:38:07;7.80;99.90
2621;DHT22;1320;48.128;11.592;2023-12-20T05:40:32;7.70;99.90
2621;DHT22;1320;48.128;11.592;2023-12-20T05:42:58;7.60;99.90
2621;DHT22;1320;48.128;11.592;2023-12-20T05:45:24;7.50;99.90
2621;DHT22;1320;48.128;11.592;2023-12-20T05:47:49;7.40;99.90
2621;DHT22;1320;48.128;11.592;2023-12-20T05:50:15;7.30;99.90
2621;DHT22;1320;48.128;11.592;2023-12-20T05:52:40;7.30;99.90
2621;DHT22;1320;48.128;11.592;2023-12-20T05:55:06;7.30;99.90
2621;DHT22;1320;48.128;11.592;2023-12-20T05:57:32;7.30;99.90
2621;DHT22;1320;48.128;11.592;2023-12-20T05:59:58;7.30;99.90
2621;DHT22;1320;48.128;11.592;2023-12-20T06:02:23;7.30;99.90
2621;DHT22;1320;48.128;11.592;2023-12-20T06:04:49;7.20;99.90
2621;DHT22;1320;48.128;11.592;2023-12-20T06:07:15;7.20;99.90
2621;DHT22;1320;48.128;11.592;2023-12-20T06:12:07;7.20;99.90
2621;DHT22;1320;48.128;11.592;2023-12-20T06:14:36;7.10;99.90
2621;DHT22;1320;48.128;11.592;2023-12-20T06:17:02;7.10;99.90
2621;DHT22;1320;48.128;11.592;2023-12-20T06:19:28;7.10;99.90
2621;DHT22;1320;48.128;11.592;2023-12-20T06:21:54;7.10;99.90
2621;DHT22;1320;48.128;11.592;2023-12-20T06:24:20;7.00;99.90
2621;DHT22;1320;48.128;11.592;2023-12-20T06:26:46;7.00;99.90
2621;DHT22;1320;48.128;11.592;2023-12-20T06:29:12;7.00;99.90
2621;DHT22;1320;48.128;11.592;2023-12-20T06:31:38;6.90;99.90
2621;DHT22;1320;48.128;11.592;2023-12-20T06:34:03;6.90;99.90
2621;DHT22;1320;48.128;11.592;2023-12-20T06:36:29;6.90;99.90
2621;DHT22;1320;48.128;11.592;2023-12-20T06:38:55;6.90;99.90
2621;DHT22;1320;48.128;11.592;2023-12-20T06:41:20;6.90;99.90
2621;DHT22;1320;48.128;11.592;2023-12-20T06:43:46;6.80;99.90
2621;DHT22;1320;48.128;11.592;2023-12-20T06:46:12;6.80;99.90
2621;DHT22;1320;48.128;11.592;2023-12-20T06:48:39;6.80;99.90
2621;DHT22;1320;48.128;11.592;2023-12-20T06:51:05;6.70;99.90
2621;DHT22;1320;48.128;11.592;2023-12-20T06:53:31;6.70;99.90
2621;DHT22;1320;48.128;11.592;2023-12-20T06:55:56;6.60;99.90
2621;DHT22;1320;48.128;11.592;2023-12-20T06:58:23;6.70;99.90
2621;DHT22;1320;48.128;11.592;2023-12-20T07:00:50;6.60;99.90
2621;DHT22;1320;48.128;11.592;2023-12-20T07:03:15;6.50;99.90
2621;DHT22;1320;48.128;11.592;2023-12-20T07:05:41;6.60;99.90
2621;DHT22;1320;48.128;11.592;2023-12-20T07:08:07;6.50;99.90
2621;DHT22;1320;48.128;11.592;2023-12-20T07:10:33;6.50;99.90
2621;DHT22;1320;48.128;11.592;2023-12-20T07:12:58;6.40;99.90
2621;DHT22;1320;48.128;11.592;2023-12-20T07:15:24;6.40;99.90
2621;DHT22;1320;48.128;11.592;2023-12-20T07:17:50;6.30;99.90
2621;DHT22;1320;48.128;11.592;2023-12-20T07:20:19;6.40;99.90
2621;DHT22;1320;48.128;11.592;2023-12-20T07:22:44;6.40;99.90
2621;DHT22;1320;48.128;11.592;2023-12-20T07:25:10;6.40;99.90
2621;DHT22;1320;48.128;11.592;2023-12-20T07:27:36;6.40;99.90
2621;DHT22;1320;48.128;11.592;2023-12-20T07:30:01;6.40;99.90
2621;DHT22;1320;48.128;11.592;2023-12-20T07:32:27;6.40;99.90
2621;DHT22;1320;48.128;11.592;2023-12-20T07:34:53;6.40;99.90
2621;DHT22;1320;48.128;11.592;2023-12-20T07:37:20;6.40;99.90
2621;DHT22;1320;48.128;11.592;2023-12-20T07:39:46;6.40;99.90
2621;DHT22;1320;48.128;11.592;2023-12-20T07:42:12;6.30;99.90
2621;DHT22;1320;48.128;11.592;2023-12-20T07:44:37;6.30;99.90
2621;DHT22;1320;48.128;11.592;2023-12-20T07:47:03;6.20;99.90
2621;DHT22;1320;48.128;11.592;2023-12-20T07:49:30;6.20;99.90
2621;DHT22;1320;48.128;11.592;2023-12-20T07:51:56;6.20;99.90
2621;DHT22;1320;48.128;11.592;2023-12-20T07:54:22;6.20;99.90
2621;DHT22;1320;48.128;11.592;2023-12-20T07:56:48;6.20;99.90
2621;DHT22;1320;48.128;11.592;2023-12-20T07:59:14;6.20;99.90
2621;DHT22;1320;48.128;11.592;2023-12-20T08:01:39;6.10;99.90
2621;DHT22;1320;48.128;11.592;2023-12-20T08:04:05;6.10;99.90
2621;DHT22;1320;48.128;11.592;2023-12-20T08:06:31;6.00;99.90
2621;DHT22;1320;48.128;11.592;2023-12-20T08:08:57;6.10;99.90
2621;DHT22;1320;48.128;11.592;2023-12-20T08:11:23;6.00;99.90
2621;DHT22;1320;48.128;11.592;2023-12-20T08:13:48;6.10;99.90
2621;DHT22;1320;48.128;11.592;2023-12-20T08:16:14;6.10;99.90
2621;DHT22;1320;48.128;11.592;2023-12-20T08:18:41;6.10;99.90
2621;DHT22;1320;48.128;11.592;2023-12-20T08:21:07;6.10;99.90
2621;DHT22;1320;48.128;11.592;2023-12-20T08:26:06;6.30;99.90
2621;DHT22;1320;48.128;11.592;2023-12-20T08:28:33;6.40;99.90
2621;DHT22;1320;48.128;11.592;2023-12-20T08:30:59;6.40;99.90
2621;DHT22;1320;48.128;11.592;2023-12-20T08:33:24;6.40;99.90
2621;DHT22;1320;48.128;11.592;2023-12-20T08:35:50;6.40;99.90
2621;DHT22;1320;48.128;11.592;2023-12-20T08:38:16;6.40;99.90
2621;DHT22;1320;48.128;11.592;2023-12-20T08:40:43;6.40;99.90
2621;DHT22;1320;48.128;11.592;2023-12-20T08:43:09;6.50;99.90
2621;DHT22;1320;48.128;11.592;2023-12-20T08:45:34;6.40;99.90
2621;DHT22;1320;48.128;11.592;2023-12-20T08:48:00;6.50;99.90
2621;DHT22;1320;48.128;11.592;2023-12-20T08:50:26;6.40;99.90
2621;DHT22;1320;48.128;11.592;2023-12-20T08:52:52;6.30;99.90
2621;DHT22;1320;48.128;11.592;2023-12-20T08:55:18;6.30;99.90
2621;DHT22;1320;48.128;11.592;2023-12-20T08:57:44;6.30;99.90
2621;DHT22;1320;48.128;11.592;2023-12-20T09:00:10;6.40;99.90
2621;DHT22;1320;48.128;11.592;2023-12-20T09:02:36;6.40;99.90
2621;DHT22;1320;48.128;11.592;2023-12-20T09:05:03;6.40;99.90
2621;DHT22;1320;48.128;11.592;2023-12-20T09:07:29;6.50;99.90
2621;DHT22;1320;48.128;11.592;2023-12-20T09:09:57;6.60;99.90
2621;DHT22;1320;48.128;11.592;2023-12-20T09:12:23;6.60;99.90
2621;DHT22;1320;48.128;11.592;2023-12-20T09:14:49;6.70;99.90
2621;DHT22;1320;48.128;11.592;2023-12-20T09:17:15;6.70;99.90
2621;DHT22;1320;48.128;11.592;2023-12-20T09:19:42;6.60;99.90
2621;DHT22;1320;48.128;11.592;2023-12-20T09:22:09;6.70;99.90
2621;DHT22;1320;48.128;11.592;2023-12-20T09:24:35;6.70;99.90
2621;DHT22;1320;48.128;11.592;2023-12-20T09:27:01;6.70;99.90
2621;DHT22;1320;48.128;11.592;2023-12-20T09:29:27;6.70;99.90
2621;DHT22;1320;48.128;11.592;2023-12-20T09:31:53;6.70;99.90
2621;DHT22;1320;48.128;11.592;2023-12-20T09:34:18;6.70;99.90
2621;DHT22;1320;48.128;11.592;2023-12-20T09:36:44;6.70;99.90
2621;DHT22;1320;48.128;11.592;2023-12-20T09:39:17;6.70;99.90
2621;DHT22;1320;48.128;11.592;2023-12-20T09:42:00;6.70;99.90
2621;DHT22;1320;48.128;11.592;2023-12-20T09:44:27;6.70;99.90
2621;DHT22;1320;48.128;11.592;2023-12-20T09:46:53;6.70;99.90
2621;DHT22;1320;48.128;11.592;2023-12-20T09:49:20;6.80;99.90
2621;DHT22;1320;48.128;11.592;2023-12-20T09:51:46;6.70;99.90
2621;DHT22;1320;48.128;11.592;2023-12-20T09:54:17;6.70;99.90
2621;DHT22;1320;48.128;11.592;2023-12-20T09:56:43;6.70;99.90
2621;DHT22;1320;48.128;11.592;2023-12-20T09:59:09;6.70;99.90
2621;DHT22;1320;48.128;11.592;2023-12-20T10:01:36;6.70;99.90
2621;DHT22;1320;48.128;11.592;2023-12-20T10:04:06;6.70;99.90
2621;DHT22;1320;48.128;11.592;2023-12-20T10:06:41;6.80;99.90
2621;DHT22;1320;48.128;11.592;2023-12-20T10:09:07;6.90;99.90
2621;DHT22;1320;48.128;11.592;2023-12-20T10:11:35;6.90;99.90
2621;DHT22;1320;48.128;11.592;2023-12-20T10:14:01;6.90;99.90
2621;DHT22;1320;48.128;11.592;2023-12-20T10:16:27;7.00;99.90
2621;DHT22;1320;48.128;11.592;2023-12-20T10:18:54;7.10;99.90
2621;DHT22;1320;48.128;11.592;2023-12-20T10:21:20;7.20;99.90
2621;DHT22;1320;48.128;11.592;2023-12-20T10:23:46;7.20;99.90
2621;DHT22;1320;48.128;11.592;2023-12-20T10:26:27;7.30;99.90
2621;DHT22;1320;48.128;11.592;2023-12-20T10:28:56;7.40;99.90
2621;DHT22;1320;48.128;11.592;2023-12-20T10:31:30;7.40;99.90
2621;DHT22;1320;48.128;11.592;2023-12-20T10:33:57;7.50;99.90
2621;DHT22;1320;48.128;11.592;2023-12-20T10:36:25;7.50;99.90
2621;DHT22;1320;48.128;11.592;2023-12-20T10:38:53;7.60;99.90
2621;DHT22;1320;48.128;11.592;2023-12-20T10:41:26;7.60;99.90
2621;DHT22;1320;48.128;11.592;2023-12-20T10:44:00;7.50;99.90
2621;DHT22;1320;48.128;11.592;2023-12-20T10:46:27;7.50;99.90
2621;DHT22;1320;48.128;11.592;2023-12-20T10:48:54;7.50;99.90
2621;DHT22;1320;48.128;11.592;2023-12-20T10:51:20;7.50;99.90
2621;DHT22;1320;48.128;11.592;2023-12-20T10:53:50;7.50;99.90
2621;DHT22;1320;48.128;11.592;2023-12-20T10:56:17;7.40;99.90
2621;DHT22;1320;48.128;11.592;2023-12-20T10:58:50;7.40;99.90
2621;DHT22;1320;48.128;11.592;2023-12-20T11:01:17;7.40;99.90
2621;DHT22;1320;48.128;11.592;2023-12-20T11:03:51;7.40;99.90
2621;DHT22;1320;48.128;11.592;2023-12-20T11:06:36;7.40;99.90
2621;DHT22;1320;48.128;11.592;2023-12-20T11:14:46;7.40;99.90
2621;DHT22;1320;48.128;11.592;2023-12-20T11:17:13;7.30;99.90
2621;DHT22;1320;48.128;11.592;2023-12-20T11:22:26;7.30;99.90
2621;DHT22;1320;48.128;11.592;2023-12-20T11:24:52;7.30;99.90
2621;DHT22;1320;48.128;11.592;2023-12-20T11:27:21;7.30;99.90
2621;DHT22;1320;48.128;11.592;2023-12-20T11:29:54;7.30;99.90
2621;DHT22;1320;48.128;11.592;2023-12-20T11:34:55;7.50;99.90
2621;DHT22;1320;48.128;11.592;2023-12-20T11:37:21;7.50;99.90
2621;DHT22;1320;48.128;11.592;2023-12-20T11:40:00;7.60;99.90
2621;DHT22;1320;48.128;11.592;2023-12-20T11:42:25;7.60;99.90
2621;DHT22;1320;48.128;11.592;2023-12-20T11:44:51;7.60;99.90
2621;DHT22;1320;48.128;11.592;2023-12-20T11:47:17;7.60;99.90
2621;DHT22;1320;48.128;11.592;2023-12-20T11:49:47;7.60;99.90
2621;DHT22;1320;48.128;11.592;2023-12-20T11:52:12;7.60;99.90
2621;DHT22;1320;48.128;11.592;2023-12-20T11:54:38;7.70;99.90
2621;DHT22;1320;48.128;11.592;2023-12-20T11:57:04;7.70;99.90
2621;DHT22;1320;48.128;11.592;2023-12-20T11:59:31;7.70;99.90
2621;DHT22;1320;48.128;11.592;2023-12-20T12:01:56;7.80;99.90
2621;DHT22;1320;48.128;11.592;2023-12-20T12:04:26;7.80;99.90
2621;DHT22;1320;48.128;11.592;2023-12-20T12:06:52;7.80;99.90
2621;DHT22;1320;48.128;11.592;2023-12-20T12:09:22;7.90;99.90
2621;DHT22;1320;48.128;11.592;2023-12-20T12:11:47;7.90;99.90
2621;DHT22;1320;48.128;11.592;2023-12-20T12:14:13;7.80;99.90
2621;DHT22;1320;48.128;11.592;2023-12-20T12:16:39;7.80;99.90
2621;DHT22;1320;48.128;11.592;2023-12-20T12:19:06;7.90;99.90
2621;DHT22;1320;48.128;11.592;2023-12-20T12:21:32;7.90;99.90
2621;DHT22;1320;48.128;11.592;2023-12-20T12:24:08;7.90;99.90
2621;DHT22;1320;48.128;11.592;2023-12-20T12:26:34;7.90;99.90
2621;DHT22;1320;48.128;11.592;2023-12-20T12:28:59;7.90;99.90
2621;DHT22;1320;48.128;11.592;2023-12-20T12:31:25;7.90;99.90
2621;DHT22;1320;48.128;11.592;2023-12-20T12:33:52;7.80;99.90
2621;DHT22;1320;48.128;11.592;2023-12-20T12:36:17;7.90;99.90
2621;DHT22;1320;48.128;11.592;2023-12-20T12:38:43;7.90;99.90
2621;DHT22;1320;48.128;11.592;2023-12-20T12:41:12;7.90;99.90
2621;DHT22;1320;48.128;11.592;2023-12-20T12:43:37;7.90;99.90
2621;DHT22;1320;48.128;11.592;2023-12-20T12:46:03;7.90;99.90
2621;DHT22;1320;48.128;11.592;2023-12-20T12:48:29;8.00;99.90
2621;DHT22;1320;48.128;11.592;2023-12-20T12:50:55;8.00;99.90
2621;DHT22;1320;48.128;11.592;2023-12-20T12:53:25;8.00;99.90
2621;DHT22;1320;48.128;11.592;2023-12-20T12:55:51;7.90;99.90
2621;DHT22;1320;48.128;11.592;2023-12-20T12:58:17;7.80;99.90
2621;DHT22;1320;48.128;11.592;2023-12-20T13:00:48;7.70;99.90
2621;DHT22;1320;48.128;11.592;2023-12-20T13:03:14;7.70;99.90
2621;DHT22;1320;48.128;11.592;2023-12-20T13:05:40;7.70;99.90
2621;DHT22;1320;48.128;11.592;2023-12-20T13:08:06;7.70;99.90
2621;DHT22;1320;48.128;11.592;2023-12-20T13:10:32;7.80;99.90
2621;DHT22;1320;48.128;11.592;2023-12-20T13:12:57;7.80;99.90
2621;DHT22;1320;48.128;11.592;2023-12-20T13:15:23;7.80;99.90
2621;DHT22;1320;48.128;11.592;2023-12-20T13:17:48;7.90;99.90
2621;DHT22;1320;48.128;11.592;2023-12-20T13:20:14;7.80;99.90
2621;DHT22;1320;48.128;11.592;2023-12-20T13:22:40;7.80;99.90
2621;DHT22;1320;48.128;11.592;2023-12-20T13:25:06;7.80;99.90
2621;DHT22;1320;48.128;11.592;2023-12-20T13:27:31;7.70;99.90
2621;DHT22;1320;48.128;11.592;2023-12-20T13:29:58;7.70;99.90
2621;DHT22;1320;48.128;11.592;2023-12-20T13:32:24;7.50;99.90
2621;DHT22;1320;48.128;11.592;2023-12-20T13:34:49;7.40;99.90
2621;DHT22;1320;48.128;11.592;2023-12-20T13:37:16;7.20;99.90
2621;DHT22;1320;48.128;11.592;2023-12-20T13:39:41;7.10;99.90
2621;DHT22;1320;48.128;11.592;2023-12-20T13:42:07;6.90;99.90
2621;DHT22;1320;48.128;11.592;2023-12-20T13:44:33;6.80;99.90
2621;DHT22;1320;48.128;11.592;2023-12-20T13:46:59;6.80;99.90
2621;DHT22;1320;48.128;11.592;2023-12-20T13:49:25;6.80;99.90
2621;DHT22;1320;48.128;11.592;2023-12-20T13:51:51;6.80;99.90
2621;DHT22;1320;48.128;11.592;2023-12-20T13:54:16;6.80;99.90
2621;DHT22;1320;48.128;11.592;2023-12-20T13:56:46;6.90;99.90
2621;DHT22;1320;48.128;11.592;2023-12-20T13:59:11;6.90;99.90
2621;DHT22;1320;48.128;11.592;2023-12-20T14:01:38;6.80;99.90
2621;DHT22;1320;48.128;11.592;2023-12-20T14:04:03;6.80;99.90
2621;DHT22;1320;48.128;11.592;2023-12-20T14:06:29;6.80;99.90
2621;DHT22;1320;48.128;11.592;2023-12-20T14:08:55;6.90;99.90
2621;DHT22;1320;48.128;11.592;2023-12-20T14:11:21;6.90;99.90
2621;DHT22;1320;48.128;11.592;2023-12-20T14:13:47;6.90;99.90
2621;DHT22;1320;48.128;11.592;2023-12-20T14:16:12;6.90;99.90
2621;DHT22;1320;48.128;11.592;2023-12-20T14:18:38;6.80;99.90
2621;DHT22;1320;48.128;11.592;2023-12-20T14:21:05;6.80;99.90
2621;DHT22;1320;48.128;11.592;2023-12-20T14:23:32;6.70;99.90
2621;DHT22;1320;48.128;11.592;2023-12-20T14:25:59;6.80;99.90
2621;DHT22;1320;48.128;11.592;2023-12-20T14:28:25;6.80;99.90
2621;DHT22;1320;48.128;11.592;2023-12-20T14:30:51;6.80;99.90
2621;DHT22;1320;48.128;11.592;2023-12-20T14:33:16;6.90;99.90
2621;DHT22;1320;48.128;11.592;2023-12-20T14:35:42;6.80;99.90
2621;DHT22;1320;48.128;11.592;2023-12-20T14:38:11;6.80;99.90
2621;DHT22;1320;48.128;11.592;2023-12-20T14:40:40;6.80;99.90
2621;DHT22;1320;48.128;11.592;2023-12-20T14:43:06;6.80;99.90
2621;DHT22;1320;48.128;11.592;2023-12-20T14:45:33;6.70;99.90
2621;DHT22;1320;48.128;11.592;2023-12-20T14:47:59;6.70;99.90
2621;DHT22;1320;48.128;11.592;2023-12-20T14:50:25;6.70;99.90
2621;DHT22;1320;48.128;11.592;2023-12-20T14:52:51;6.60;99.90
2621;DHT22;1320;48.128;11.592;2023-12-20T14:55:19;6.60;99.90
2621;DHT22;1320;48.128;11.592;2023-12-20T14:57:46;6.60;99.90
2621;DHT22;1320;48.128;11.592;2023-12-20T15:00:12;6.70;99.90
2621;DHT22;1320;48.128;11.592;2023-12-20T15:02:41;6.70;99.90
2621;DHT22;1320;48.128;11.592;2023-12-20T15:05:07;6.70;99.90
2621;DHT22;1320;48.128;11.592;2023-12-20T15:07:33;6.70;99.90
2621;DHT22;1320;48.128;11.592;2023-12-20T15:09:59;6.80;99.90
2621;DHT22;1320;48.128;11.592;2023-12-20T15:12:24;6.80;99.90
2621;DHT22;1320;48.128;11.592;2023-12-20T15:14:50;6.70;99.90
2621;DHT22;1320;48.128;11.592;2023-12-20T15:17:15;6.70;99.90
2621;DHT22;1320;48.128;11.592;2023-12-20T15:19:41;6.70;99.90
2621;DHT22;1320;48.128;11.592;2023-12-20T15:22:08;6.70;99.90
2621;DHT22;1320;48.128;11.592;2023-12-20T15:24:33;6.70;99.90
2621;DHT22;1320;48.128;11.592;2023-12-20T15:27:06;6.70;99.90
2621;DHT22;1320;48.128;11.592;2023-12-20T15:29:32;6.70;99.90
2621;DHT22;1320;48.128;11.592;2023-12-20T15:31:58;6.70;99.90
2621;DHT22;1320;48.128;11.592;2023-12-20T15:34:23;6.70;99.90
2621;DHT22;1320;48.128;11.592;2023-12-20T15:36:49;6.70;99.90
2621;DHT22;1320;48.128;11.592;2023-12-20T15:39:15;6.70;99.90
2621;DHT22;1320;48.128;11.592;2023-12-20T15:41:41;6.70;99.90
2621;DHT22;1320;48.128;11.592;2023-12-20T15:44:07;6.60;99.90
2621;DHT22;1320;48.128;11.592;2023-12-20T15:46:32;6.60;99.90
2621;DHT22;1320;48.128;11.592;2023-12-20T15:48:58;6.60;99.90
2621;DHT22;1320;48.128;11.592;2023-12-20T15:51:24;6.60;99.90
2621;DHT22;1320;48.128;11.592;2023-12-20T15:53:50;6.50;99.90
2621;DHT22;1320;48.128;11.592;2023-12-20T15:56:16;6.50;99.90
2621;DHT22;1320;48.128;11.592;2023-12-20T15:58:43;6.40;99.90
2621;DHT22;1320;48.128;11.592;2023-12-20T16:01:09;6.40;99.90
2621;DHT22;1320;48.128;11.592;2023-12-20T16:03:34;6.40;99.90
2621;DHT22;1320;48.128;11.592;2023-12-20T16:06:00;6.40;99.90
2621;DHT22;1320;48.128;11.592;2023-12-20T16:08:26;6.30;99.90
2621;DHT22;1320;48.128;11.592;2023-12-20T16:10:52;6.30;99.90
2621;DHT22;1320;48.128;11.592;2023-12-20T16:13:18;6.30;99.90